Time;durP1;ratioP1;P1;durP2;ratioP2;P2;SDS_P1;SDS_P2;PMS_P1;PMS_P2;Temp;Humidity;BMP_temperature;BMP_pressure;BME280_temperature;BME280_humidity;BME280_pressure;Samples;Min_cycle;Max_cycle;Signal;HPM_P1;HPM_P2
2023/10/11 00:00:52;;;;;;;;;;;21.50;1.00;;;;;;4936483;29;19926;-51
2023/10/11 00:05:53;;;;;;;;;;;21.50;1.00;;;;;;4936923;29;20300;-51
2023/10/11 00:08:25;;;;;;;;;;;21.50;1.00;;;;;;4936589;29;19927;-50
2023/10/11 00:10:53;;;;;;;;;;;21.50;1.00;;;;;;4936307;29;19926;-53
2023/10/11 00:13:21;;;;;;;;;;;21.50;1.00;;;;;;4919120;29;19926;-50
2023/10/11 00:15:50;;;;;;;;;;;21.50;1.00;;;;;;4936529;29;20018;-50
2023/10/11 00:18:18;;;;;;;;;;;21.50;1.00;;;;;;4936312;29;19930;-50
2023/10/11 00:23:14;;;;;;;;;;;21.50;1.00;;;;;;4936362;29;20311;-53
2023/10/11 00:25:41;;;;;;;;;;;21.50;1.00;;;;;;4936341;29;19934;-53
2023/10/11 00:28:08;;;;;;;;;;;21.50;1.00;;;;;;4936304;29;19931;-49
2023/10/11 00:30:38;;;;;;;;;;;21.50;1.00;;;;;;4936011;29;19930;-51
2023/10/11 00:33:09;;;;;;;;;;;21.40;1.00;;;;;;4919000;29;20312;-52
2023/10/11 00:35:49;;;;;;;;;;;21.50;1.00;;;;;;4919128;29;20013;-48
2023/10/11 00:38:18;;;;;;;;;;;21.40;1.00;;;;;;4935903;29;20340;-52
2023/10/11 00:40:45;;;;;;;;;;;21.40;1.00;;;;;;4935672;29;20344;-53
2023/10/11 00:43:13;;;;;;;;;;;21.40;1.00;;;;;;4935904;29;19927;-52
2023/10/11 00:45:40;;;;;;;;;;;21.40;1.00;;;;;;4935978;29;19933;-54
2023/10/11 00:48:10;;;;;;;;;;;21.40;1.00;;;;;;4918762;29;19970;-50
2023/10/11 00:50:37;;;;;;;;;;;21.40;1.00;;;;;;4918697;29;19931;-52
2023/10/11 00:53:06;;;;;;;;;;;21.50;1.00;;;;;;4935726;29;20544;-51
2023/10/11 00:55:34;;;;;;;;;;;21.40;1.00;;;;;;4918650;29;19970;-51
2023/10/11 00:58:01;;;;;;;;;;;21.40;1.00;;;;;;4935874;29;19958;-53
2023/10/11 01:00:34;;;;;;;;;;;21.40;1.00;;;;;;4918425;29;19974;-51
2023/10/11 01:03:03;;;;;;;;;;;21.40;1.00;;;;;;4935435;29;19934;-51
2023/10/11 01:05:32;;;;;;;;;;;21.40;1.00;;;;;;4918474;29;19931;-51
2023/10/11 01:08:00;;;;;;;;;;;21.40;1.00;;;;;;4918470;29;19926;-51
2023/10/11 01:10:29;;;;;;;;;;;21.40;1.00;;;;;;4918508;29;19927;-50
2023/10/11 01:12:57;;;;;;;;;;;21.40;1.00;;;;;;4918159;29;20430;-49
2023/10/11 01:15:24;;;;;;;;;;;21.40;1.00;;;;;;4918328;29;19965;-51
2023/10/11 01:17:53;;;;;;;;;;;21.40;1.00;;;;;;4918477;29;19933;-54
2023/10/11 01:20:21;;;;;;;;;;;21.40;1.00;;;;;;4918088;29;19976;-49
2023/10/11 01:22:48;;;;;;;;;;;21.40;1.00;;;;;;4918183;29;19938;-48
2023/10/11 01:25:18;;;;;;;;;;;21.40;1.00;;;;;;4934853;29;19933;-50
2023/10/11 01:27:45;;;;;;;;;;;21.40;1.00;;;;;;4935688;29;19938;-53
2023/10/11 01:30:12;;;;;;;;;;;21.40;1.00;;;;;;4917968;29;19933;-54
2023/10/11 01:32:42;;;;;;;;;;;21.40;1.00;;;;;;4935460;29;20391;-49
2023/10/11 01:35:14;;;;;;;;;;;21.40;1.00;;;;;;4918033;29;19938;-49
2023/10/11 01:37:43;;;;;;;;;;;21.40;1.00;;;;;;4918251;29;20033;-54
2023/10/11 01:40:12;;;;;;;;;;;21.40;1.00;;;;;;4935047;29;19974;-52
2023/10/11 01:42:41;;;;;;;;;;;21.40;1.00;;;;;;4917961;29;19931;-48
2023/10/11 01:45:08;;;;;;;;;;;21.40;1.00;;;;;;4935388;29;19933;-52
2023/10/11 01:47:35;;;;;;;;;;;21.40;1.00;;;;;;4935312;29;20335;-53
2023/10/11 01:50:03;;;;;;;;;;;21.40;1.00;;;;;;4934953;29;20299;-48
2023/10/11 01:52:34;;;;;;;;;;;21.40;1.00;;;;;;4935175;29;20376;-51
2023/10/11 01:55:01;;;;;;;;;;;21.40;1.00;;;;;;4918035;29;19978;-49
2023/10/11 01:57:28;;;;;;;;;;;21.40;1.00;;;;;;4917979;29;19927;-50
2023/10/11 01:59:54;;;;;;;;;;;21.40;1.00;;;;;;4918089;29;20025;-54
2023/10/11 02:02:27;;;;;;;;;;;21.40;1.00;;;;;;4917812;29;19927;-50
2023/10/11 02:04:57;;;;;;;;;;;21.30;1.00;;;;;;4917972;29;19927;-53
2023/10/11 02:07:24;;;;;;;;;;;21.30;1.00;;;;;;4917944;29;19927;-53
2023/10/11 02:09:50;;;;;;;;;;;21.30;1.00;;;;;;4917780;29;19927;-52
2023/10/11 02:12:22;;;;;;;;;;;21.30;1.00;;;;;;4934805;29;20029;-51
2023/10/11 02:14:50;;;;;;;;;;;21.30;1.00;;;;;;4934936;29;19930;-48
2023/10/11 02:17:23;;;;;;;;;;;21.30;1.00;;;;;;4918018;29;19942;-53
2023/10/11 02:19:53;;;;;;;;;;;21.30;1.00;;;;;;4917984;29;19927;-49
2023/10/11 02:22:22;;;;;;;;;;;21.30;1.00;;;;;;4917767;29;19931;-53
2023/10/11 02:24:51;;;;;;;;;;;21.40;1.00;;;;;;4902399;29;20269;-53
2023/10/11 02:27:18;;;;;;;;;;;21.30;1.00;;;;;;4917810;29;19931;-54
2023/10/11 02:29:47;;;;;;;;;;;21.30;1.00;;;;;;4917708;29;19926;-49
2023/10/11 02:32:14;;;;;;;;;;;21.30;1.00;;;;;;4934694;29;20330;-54
2023/10/11 02:34:42;;;;;;;;;;;21.30;1.00;;;;;;4934895;29;19927;-52
2023/10/11 02:37:12;;;;;;;;;;;21.30;1.00;;;;;;4936131;29;20277;-54
2023/10/11 02:39:46;;;;;;;;;;;21.30;1.00;;;;;;4937969;29;19960;-53
2023/10/11 02:42:19;;;;;;;;;;;21.30;1.00;;;;;;4937099;29;19927;-51
2023/10/11 02:44:48;;;;;;;;;;;21.30;1.00;;;;;;4932386;29;20444;-53
2023/10/11 02:47:22;;;;;;;;;;;21.30;1.00;;;;;;4920717;29;19935;-53
2023/10/11 02:49:52;;;;;;;;;;;21.30;1.00;;;;;;4920641;29;20018;-53
2023/10/11 02:52:18;;;;;;;;;;;21.30;1.00;;;;;;4937733;29;19931;-51
2023/10/11 02:54:46;;;;;;;;;;;21.30;1.00;;;;;;4920664;29;20021;-50
2023/10/11 02:57:18;;;;;;;;;;;21.30;1.00;;;;;;4920697;29;19926;-53
2023/10/11 02:59:50;;;;;;;;;;;21.30;1.00;;;;;;4920727;29;19927;-54
2023/10/11 03:02:18;;;;;;;;;;;21.30;1.00;;;;;;4937698;29;19928;-52
2023/10/11 03:04:44;;;;;;;;;;;21.30;1.00;;;;;;4920548;29;19931;-50
2023/10/11 03:07:15;;;;;;;;;;;21.30;1.00;;;;;;4920547;29;19938;-49
2023/10/11 03:09:42;;;;;;;;;;;21.30;1.00;;;;;;4937595;29;19927;-53
2023/10/11 03:12:20;;;;;;;;;;;21.30;1.00;;;;;;4920275;29;20029;-53
2023/10/11 03:14:54;;;;;;;;;;;21.30;1.00;;;;;;4920384;29;19931;-49
2023/10/11 03:17:21;;;;;;;;;;;21.30;1.00;;;;;;4937405;29;19933;-54
2023/10/11 03:19:49;;;;;;;;;;;21.30;1.00;;;;;;4937213;29;19933;-52
2023/10/11 03:22:20;;;;;;;;;;;21.30;1.00;;;;;;4937251;29;19982;-51
2023/10/11 03:24:53;;;;;;;;;;;21.30;1.00;;;;;;4937541;29;19927;-53
2023/10/11 03:27:23;;;;;;;;;;;21.30;1.00;;;;;;4937405;29;19935;-51
2023/10/11 03:29:53;;;;;;;;;;;21.30;1.00;;;;;;4937207;29;20026;-54
2023/10/11 03:32:24;;;;;;;;;;;21.30;1.00;;;;;;4936960;29;20400;-53
2023/10/11 03:34:51;;;;;;;;;;;21.30;1.00;;;;;;4931487;29;20039;-53
2023/10/11 03:37:18;;;;;;;;;;;21.30;1.00;;;;;;4918332;29;19927;-53
2023/10/11 03:39:55;;;;;;;;;;;21.20;1.00;;;;;;4917667;29;20396;-49
2023/10/11 03:42:50;;;;;;;;;;;21.30;1.00;;;;;;4917714;29;19974;-52
2023/10/11 03:45:09;;;;;;;;;;;21.20;1.00;;;;;;4918049;29;20465;-48
2023/10/11 03:47:38;;;;;;;;;;;21.30;1.00;;;;;;4918050;29;19927;-53
2023/10/11 03:50:06;;;;;;;;;;;21.20;1.00;;;;;;4917033;29;19927;-52
2023/10/11 03:52:33;;;;;;;;;;;21.20;1.00;;;;;;4917576;29;20395;-51
2023/10/11 03:55:09;;;;;;;;;;;21.20;1.00;;;;;;4916679;29;19962;-54
2023/10/11 03:57:41;;;;;;;;;;;21.20;1.00;;;;;;4916615;29;19927;-49
2023/10/11 04:02:58;;;;;;;;;;;21.20;1.00;;;;;;4916293;29;20381;-53
2023/10/11 04:05:33;;;;;;;;;;;21.20;1.00;;;;;;4925887;29;20186;-53
2023/10/11 04:08:12;;;;;;;;;;;21.20;1.00;;;;;;4935101;29;20325;-53
2023/10/11 04:10:39;;;;;;;;;;;21.20;1.00;;;;;;4927601;29;19927;-51
2023/10/11 04:13:14;;;;;;;;;;;21.20;1.00;;;;;;4917398;29;20449;-52
2023/10/11 04:15:42;;;;;;;;;;;21.20;1.00;;;;;;4917395;29;19969;-51
2023/10/11 04:18:33;;;;;;;;;;;21.20;1.00;;;;;;4917484;29;19973;-52
2023/10/11 04:23:36;;;;;;;;;;;21.20;1.00;;;;;;4919648;29;20359;-53
2023/10/11 04:26:23;;;;;;;;;;;21.20;1.00;;;;;;4935756;29;19927;-48
2023/10/11 04:28:52;;;;;;;;;;;21.20;1.00;;;;;;4936328;29;19938;-52
2023/10/11 04:31:30;;;;;;;;;;;21.20;1.00;;;;;;4935946;29;19930;-49
2023/10/11 04:33:59;;;;;;;;;;;21.20;1.00;;;;;;4936108;29;20017;-53
2023/10/11 04:36:28;;;;;;;;;;;21.20;1.00;;;;;;4935958;29;19933;-53
2023/10/11 04:39:03;;;;;;;;;;;21.20;1.00;;;;;;4936223;29;19927;-52
2023/10/11 04:41:39;;;;;;;;;;;21.20;1.00;;;;;;4935897;29;19938;-52
2023/10/11 04:44:13;;;;;;;;;;;21.20;1.00;;;;;;4935960;29;19926;-53
2023/10/11 04:46:44;;;;;;;;;;;21.20;1.00;;;;;;4936039;29;19930;-53
2023/10/11 04:49:18;;;;;;;;;;;21.20;1.00;;;;;;4935853;29;19949;-48
2023/10/11 04:51:46;;;;;;;;;;;21.20;1.00;;;;;;4927911;29;19933;-52
2023/10/11 04:54:13;;;;;;;;;;;21.20;1.00;;;;;;4923844;29;19927;-54
2023/10/11 04:59:16;;;;;;;;;;;21.20;1.00;;;;;;4913545;29;20037;-51
2023/10/11 05:04:15;;;;;;;;;;;21.20;1.00;;;;;;4914706;29;19974;-50
2023/10/11 05:06:43;;;;;;;;;;;21.20;1.00;;;;;;4914649;29;19927;-53
2023/10/11 05:11:50;;;;;;;;;;;21.20;1.00;;;;;;4927372;29;19927;-52
2023/10/11 05:14:29;;;;;;;;;;;21.20;1.00;;;;;;4935092;29;19927;-50
2023/10/11 05:17:16;;;;;;;;;;;21.20;1.00;;;;;;4935137;29;19974;-52
2023/10/11 05:19:56;;;;;;;;;;;21.10;1.00;;;;;;4934996;29;20385;-53
2023/10/11 05:22:30;;;;;;;;;;;21.10;1.00;;;;;;4934892;29;20396;-52
2023/10/11 05:30:11;;;;;;;;;;;21.20;1.00;;;;;;4916135;29;20017;-53
2023/10/11 05:33:09;;;;;;;;;;;21.10;1.00;;;;;;4915791;29;19927;-52
2023/10/11 05:52:09;;;;;;;;;;;21.10;1.00;;;;;;4915741;29;19927;-54
2023/10/11 05:54:36;;;;;;;;;;;21.10;1.00;;;;;;4915914;29;20368;-53
2023/10/11 05:57:06;;;;;;;;;;;21.10;1.00;;;;;;4916158;29;19927;-53
2023/10/11 05:59:35;;;;;;;;;;;21.10;1.00;;;;;;4915662;29;19965;-53
2023/10/11 06:02:07;;;;;;;;;;;21.10;1.00;;;;;;4915697;29;20363;-49
2023/10/11 06:04:39;;;;;;;;;;;21.10;1.00;;;;;;4915926;29;19938;-50
2023/10/11 06:07:07;;;;;;;;;;;21.10;1.00;;;;;;4916491;29;19954;-53
2023/10/11 06:09:43;;;;;;;;;;;21.10;1.00;;;;;;4915782;29;20528;-53
2023/10/11 06:12:28;;;;;;;;;;;21.10;1.00;;;;;;4917050;29;20328;-53
2023/10/11 06:14:56;;;;;;;;;;;21.10;1.00;;;;;;4931088;29;19927;-54
2023/10/11 06:17:32;;;;;;;;;;;21.10;1.00;;;;;;4938384;29;19973;-53
2023/10/11 06:20:23;;;;;;;;;;;21.10;1.00;;;;;;4938362;29;19938;-54
2023/10/11 06:22:49;;;;;;;;;;;21.10;1.00;;;;;;4937460;29;19927;-51
2023/10/11 06:25:22;;;;;;;;;;;21.10;1.00;;;;;;4937649;29;20026;-53
2023/10/11 06:30:27;;;;;;;;;;;21.10;1.00;;;;;;4937793;29;19926;-53
2023/10/11 06:32:56;;;;;;;;;;;21.10;1.00;;;;;;4938001;29;19934;-52
2023/10/11 06:35:23;;;;;;;;;;;21.10;1.00;;;;;;4937486;29;19934;-54
2023/10/11 06:37:58;;;;;;;;;;;21.10;1.00;;;;;;4937412;29;20460;-52
2023/10/11 06:40:47;;;;;;;;;;;21.10;1.00;;;;;;4937367;29;19930;-53
2023/10/11 06:43:13;;;;;;;;;;;21.10;1.00;;;;;;4937111;29;19927;-52
2023/10/11 06:45:41;;;;;;;;;;;21.10;1.00;;;;;;4936970;29;19931;-53
2023/10/11 06:48:08;;;;;;;;;;;21.10;1.00;;;;;;4937039;29;20362;-54
2023/10/11 06:50:36;;;;;;;;;;;21.10;1.00;;;;;;4937283;29;19927;-54
2023/10/11 06:53:09;;;;;;;;;;;21.10;1.00;;;;;;4937452;29;19950;-54
2023/10/11 06:55:39;;;;;;;;;;;21.00;1.00;;;;;;4937479;29;19934;-54
2023/10/11 06:58:09;;;;;;;;;;;21.10;1.00;;;;;;4937638;29;19974;-54
2023/10/11 07:00:45;;;;;;;;;;;21.10;1.00;;;;;;4936673;29;20025;-54
2023/10/11 07:05:47;;;;;;;;;;;21.10;1.00;;;;;;4918319;29;20014;-54
2023/10/11 07:08:17;;;;;;;;;;;21.00;1.00;;;;;;4918544;29;19927;-52
2023/10/11 07:10:45;;;;;;;;;;;21.10;1.00;;;;;;4901079;29;19934;-54
2023/10/11 07:13:13;;;;;;;;;;;21.10;1.00;;;;;;4918305;29;19933;-53
2023/10/11 07:15:44;;;;;;;;;;;21.00;1.00;;;;;;4917879;29;19927;-53
2023/10/11 07:18:11;;;;;;;;;;;21.10;1.00;;;;;;4917943;29;19930;-53
2023/10/11 07:20:48;;;;;;;;;;;21.00;1.00;;;;;;4927136;29;20405;-53
2023/10/11 07:23:20;;;;;;;;;;;21.10;1.00;;;;;;4936198;29;19990;-53
2023/10/11 07:26:22;;;;;;;;;;;21.00;1.00;;;;;;4936984;29;19994;-52
2023/10/11 07:28:51;;;;;;;;;;;21.10;1.00;;;;;;4937084;29;19934;-52
2023/10/11 07:31:18;;;;;;;;;;;21.00;1.00;;;;;;4937916;29;19934;-53
2023/10/11 07:33:50;;;;;;;;;;;21.00;1.00;;;;;;4942017;29;20291;-52
2023/10/11 07:36:18;;;;;;;;;;;21.00;1.00;;;;;;4942547;29;19937;-53
2023/10/11 07:38:54;;;;;;;;;;;21.00;1.00;;;;;;4938171;29;19927;-53
2023/10/11 07:41:22;;;;;;;;;;;21.10;1.00;;;;;;4936478;29;19930;-53
2023/10/11 07:43:49;;;;;;;;;;;21.00;1.00;;;;;;4936625;29;20302;-52
2023/10/11 07:46:17;;;;;;;;;;;21.10;1.00;;;;;;4936757;29;19934;-54
2023/10/11 07:48:44;;;;;;;;;;;21.00;1.00;;;;;;4936609;29;19950;-54
2023/10/11 07:51:14;;;;;;;;;;;21.10;1.00;;;;;;4936442;29;19967;-53
2023/10/11 07:53:43;;;;;;;;;;;21.10;1.00;;;;;;4936605;29;20392;-53
2023/10/11 07:56:09;;;;;;;;;;;21.10;1.00;;;;;;4936541;29;19934;-54
2023/10/11 07:58:44;;;;;;;;;;;21.10;1.00;;;;;;4936187;29;19933;-54
2023/10/11 08:01:30;;;;;;;;;;;21.10;1.00;;;;;;4936030;29;19934;-53
2023/10/11 08:03:57;;;;;;;;;;;21.10;1.00;;;;;;4933739;29;19934;-53
2023/10/11 08:06:30;;;;;;;;;;;21.10;1.00;;;;;;4932505;29;19927;-53
2023/10/11 08:09:00;;;;;;;;;;;21.10;1.00;;;;;;4936114;29;20332;-53
2023/10/11 08:11:36;;;;;;;;;;;21.10;1.00;;;;;;4936096;29;19926;-48
2023/10/11 08:14:10;;;;;;;;;;;21.10;1.00;;;;;;4936470;29;19935;-53
2023/10/11 08:16:40;;;;;;;;;;;21.10;1.00;;;;;;4936068;29;19975;-54
2023/10/11 08:19:06;;;;;;;;;;;21.10;1.00;;;;;;4936372;29;19933;-49
2023/10/11 08:21:33;;;;;;;;;;;21.10;1.00;;;;;;4928712;29;19935;-51
2023/10/11 08:24:00;;;;;;;;;;;21.10;1.00;;;;;;4936141;29;19927;-54
2023/10/11 08:26:32;;;;;;;;;;;21.10;1.00;;;;;;4934723;29;19927;-48
2023/10/11 08:29:14;;;;;;;;;;;21.10;1.00;;;;;;4935779;29;19981;-48
2023/10/11 08:31:44;;;;;;;;;;;21.10;1.00;;;;;;4935807;29;19930;-49
2023/10/11 08:34:14;;;;;;;;;;;21.10;1.00;;;;;;4935623;29;20029;-48
2023/10/11 08:36:43;;;;;;;;;;;21.10;1.00;;;;;;4935664;29;19927;-51
2023/10/11 08:39:13;;;;;;;;;;;21.10;1.00;;;;;;4935683;29;19936;-49
2023/10/11 08:41:46;;;;;;;;;;;21.10;1.00;;;;;;4935272;29;19933;-50
2023/10/11 08:44:20;;;;;;;;;;;21.10;1.00;;;;;;4935672;29;20030;-48
2023/10/11 08:46:51;;;;;;;;;;;21.10;1.00;;;;;;4935608;29;19931;-48
2023/10/11 08:49:17;;;;;;;;;;;21.10;1.00;;;;;;4935843;29;20307;-49
2023/10/11 08:51:45;;;;;;;;;;;21.10;1.00;;;;;;4935104;29;19970;-53
2023/10/11 08:54:12;;;;;;;;;;;21.10;1.00;;;;;;4935578;29;19927;-51
2023/10/11 08:56:54;;;;;;;;;;;21.10;1.00;;;;;;4935376;29;19954;-51
2023/10/11 08:59:25;;;;;;;;;;;21.10;1.00;;;;;;4935540;29;19926;-49
2023/10/11 09:01:52;;;;;;;;;;;21.10;1.00;;;;;;4934969;29;20423;-50
2023/10/11 09:04:26;;;;;;;;;;;21.10;1.00;;;;;;4935461;29;20017;-53
2023/10/11 09:06:57;;;;;;;;;;;21.10;1.00;;;;;;4935568;29;19930;-51
2023/10/11 09:09:39;;;;;;;;;;;21.10;1.00;;;;;;4935864;29;19927;-50
2023/10/11 09:12:26;;;;;;;;;;;21.10;1.00;;;;;;4931883;29;19998;-48
2023/10/11 09:14:54;;;;;;;;;;;21.10;1.00;;;;;;4933403;29;19926;-48
2023/10/11 09:17:23;;;;;;;;;;;21.10;1.00;;;;;;4935163;29;19978;-52
2023/10/11 09:19:50;;;;;;;;;;;21.10;1.00;;;;;;4934897;29;19927;-48
2023/10/11 09:22:20;;;;;;;;;;;21.10;1.00;;;;;;4934967;29;20299;-51
2023/10/11 09:25:02;;;;;;;;;;;21.10;1.00;;;;;;4935007;29;19970;-52
2023/10/11 09:27:41;;;;;;;;;;;21.10;1.00;;;;;;4934893;29;20030;-51
2023/10/11 09:30:19;;;;;;;;;;;21.10;1.00;;;;;;4915967;29;19927;-51
2023/10/11 09:32:53;;;;;;;;;;;21.10;1.00;;;;;;4916081;29;20365;-53
2023/10/11 09:35:32;;;;;;;;;;;21.10;1.00;;;;;;4916055;29;19927;-53
2023/10/11 09:37:59;;;;;;;;;;;21.10;1.00;;;;;;4916081;29;19928;-51
2023/10/11 09:40:34;;;;;;;;;;;21.10;1.00;;;;;;4915844;29;20404;-49
2023/10/11 09:43:01;;;;;;;;;;;21.10;1.00;;;;;;4915821;29;19927;-49
2023/10/11 09:45:29;;;;;;;;;;;21.10;1.00;;;;;;4916118;29;20298;-48
2023/10/11 09:47:56;;;;;;;;;;;21.10;1.00;;;;;;4918874;29;19926;-49
2023/10/11 09:50:24;;;;;;;;;;;21.10;1.00;;;;;;4919713;29;19931;-49
2023/10/11 09:52:52;;;;;;;;;;;21.10;1.00;;;;;;4919296;29;20030;-51
2023/10/11 09:55:31;;;;;;;;;;;21.10;1.00;;;;;;4919592;29;19954;-54
2023/10/11 09:58:11;;;;;;;;;;;21.10;1.00;;;;;;4919517;29;19933;-54
2023/10/11 10:00:50;;;;;;;;;;;21.10;1.00;;;;;;4919400;29;20289;-53
2023/10/11 10:03:17;;;;;;;;;;;21.10;1.00;;;;;;4931596;29;20014;-53
2023/10/11 10:06:03;;;;;;;;;;;21.10;1.00;;;;;;4937354;29;19931;-54
2023/10/11 10:08:30;;;;;;;;;;;21.10;1.00;;;;;;4938372;29;19934;-52
2023/10/11 10:10:57;;;;;;;;;;;21.10;1.00;;;;;;4938024;29;19933;-53
2023/10/11 10:13:25;;;;;;;;;;;21.10;1.00;;;;;;4938485;29;20300;-53
2023/10/11 10:15:53;;;;;;;;;;;21.20;1.00;;;;;;4938088;29;19934;-53
2023/10/11 10:18:21;;;;;;;;;;;21.10;1.00;;;;;;4930310;29;19953;-54
2023/10/11 10:21:06;;;;;;;;;;;21.10;1.00;;;;;;4937822;29;20001;-53
2023/10/11 10:23:37;;;;;;;;;;;21.10;1.00;;;;;;4931788;29;19950;-52
2023/10/11 10:26:07;;;;;;;;;;;21.20;1.00;;;;;;4919015;29;19978;-49
2023/10/11 10:28:36;;;;;;;;;;;21.20;1.00;;;;;;4918369;29;19966;-52
2023/10/11 10:31:11;;;;;;;;;;;21.20;1.00;;;;;;4919133;29;20143;-53
2023/10/11 10:33:42;;;;;;;;;;;21.20;1.00;;;;;;4919150;29;19933;-52
2023/10/11 10:36:18;;;;;;;;;;;21.20;1.00;;;;;;4919047;29;19935;-48
2023/10/11 10:39:01;;;;;;;;;;;21.20;1.00;;;;;;4918936;29;20278;-53
2023/10/11 10:41:30;;;;;;;;;;;21.20;1.00;;;;;;4918630;29;19927;-48
2023/10/11 10:44:06;;;;;;;;;;;21.20;1.00;;;;;;4918742;29;20017;-53
2023/10/11 10:46:34;;;;;;;;;;;21.20;1.00;;;;;;4918903;29;19970;-52
2023/10/11 10:49:04;;;;;;;;;;;21.20;1.00;;;;;;4918477;29;19927;-52
2023/10/11 10:51:37;;;;;;;;;;;21.20;1.00;;;;;;4918229;29;20014;-52
2023/10/11 10:54:14;;;;;;;;;;;21.20;1.00;;;;;;4918781;29;19930;-50
2023/10/11 10:56:45;;;;;;;;;;;21.20;1.00;;;;;;4918653;29;19974;-54
2023/10/11 10:59:14;;;;;;;;;;;21.20;1.00;;;;;;4918315;29;19966;-53
2023/10/11 11:01:44;;;;;;;;;;;21.20;1.00;;;;;;4918105;29;20417;-52
2023/10/11 11:04:12;;;;;;;;;;;21.20;1.00;;;;;;4918423;29;20506;-53
2023/10/11 11:06:44;;;;;;;;;;;21.20;1.00;;;;;;4918401;29;19927;-51
2023/10/11 11:09:30;;;;;;;;;;;21.20;1.00;;;;;;4918258;29;20014;-54
2023/10/11 11:12:14;;;;;;;;;;;21.20;1.00;;;;;;4918162;29;19928;-54
2023/10/11 11:14:58;;;;;;;;;;;21.20;1.00;;;;;;4918165;29;19942;-54
2023/10/11 11:17:45;;;;;;;;;;;21.20;1.00;;;;;;4930364;29;19934;-52
2023/10/11 11:20:33;;;;;;;;;;;21.20;1.00;;;;;;4937010;29;19934;-48
2023/10/11 11:23:00;;;;;;;;;;;21.20;1.00;;;;;;4936875;29;19927;-53
2023/10/11 11:25:27;;;;;;;;;;;21.20;1.00;;;;;;4937041;29;19933;-54
2023/10/11 11:28:25;;;;;;;;;;;21.20;1.00;;;;;;4936961;29;20149;-50
2023/10/11 11:30:51;;;;;;;;;;;21.20;1.00;;;;;;4936087;29;19934;-53
2023/10/11 11:33:20;;;;;;;;;;;21.30;1.00;;;;;;4936523;29;19927;-52
2023/10/11 11:35:52;;;;;;;;;;;21.30;1.00;;;;;;4937006;29;19982;-52
2023/10/11 11:38:22;;;;;;;;;;;21.20;1.00;;;;;;4937059;29;19982;-53
2023/10/11 11:40:51;;;;;;;;;;;21.20;1.00;;;;;;4936344;29;19927;-53
2023/10/11 11:43:20;;;;;;;;;;;21.30;1.00;;;;;;4936660;29;19931;-53
2023/10/11 11:45:48;;;;;;;;;;;21.30;1.00;;;;;;4936716;29;19931;-53
2023/10/11 11:48:23;;;;;;;;;;;21.30;1.00;;;;;;4936715;29;20025;-51
2023/10/11 11:50:50;;;;;;;;;;;21.30;1.00;;;;;;4936153;29;19974;-53
2023/10/11 11:53:20;;;;;;;;;;;21.30;1.00;;;;;;4936783;29;20010;-53
2023/10/11 11:55:46;;;;;;;;;;;21.30;1.00;;;;;;4936716;29;19927;-51
2023/10/11 11:58:16;;;;;;;;;;;21.30;1.00;;;;;;4936328;29;20000;-49
2023/10/11 12:00:46;;;;;;;;;;;21.30;1.00;;;;;;4936212;29;19926;-48
2023/10/11 12:03:13;;;;;;;;;;;21.30;1.00;;;;;;4936349;29;19926;-51
2023/10/11 12:05:43;;;;;;;;;;;21.30;1.00;;;;;;4936430;29;20006;-51
2023/10/11 12:08:20;;;;;;;;;;;21.30;1.00;;;;;;4936256;29;19949;-51
2023/10/11 12:10:54;;;;;;;;;;;21.30;1.00;;;;;;4935245;29;19926;-52
2023/10/11 12:13:25;;;;;;;;;;;21.30;1.00;;;;;;4936144;29;19927;-49
2023/10/11 12:15:55;;;;;;;;;;;21.30;1.00;;;;;;4936135;29;19998;-49
2023/10/11 12:18:23;;;;;;;;;;;21.40;1.00;;;;;;4936116;29;20022;-54
2023/10/11 12:20:50;;;;;;;;;;;21.40;1.00;;;;;;4935876;29;19933;-53
2023/10/11 12:23:18;;;;;;;;;;;21.40;1.00;;;;;;4936388;29;19938;-49
2023/10/11 12:25:47;;;;;;;;;;;21.40;1.00;;;;;;4935513;29;20148;-51
2023/10/11 12:28:14;;;;;;;;;;;21.40;1.00;;;;;;4935857;29;19933;-49
2023/10/11 12:30:45;;;;;;;;;;;21.40;1.00;;;;;;4935794;29;19965;-50
2023/10/11 12:33:12;;;;;;;;;;;21.40;1.00;;;;;;4936003;29;19958;-52
2023/10/11 12:35:40;;;;;;;;;;;21.40;1.00;;;;;;4935711;29;20296;-50
2023/10/11 12:38:08;;;;;;;;;;;21.40;1.00;;;;;;4935598;29;19927;-48
2023/10/11 12:40:35;;;;;;;;;;;21.40;1.00;;;;;;4935599;29;20388;-49
2023/10/11 12:43:07;;;;;;;;;;;21.40;1.00;;;;;;4935550;29;19926;-52
2023/10/11 12:45:35;;;;;;;;;;;21.40;1.00;;;;;;4935676;29;19937;-50
2023/10/11 12:48:06;;;;;;;;;;;21.40;1.00;;;;;;4935669;29;19962;-52
2023/10/11 12:50:36;;;;;;;;;;;21.40;1.00;;;;;;4935402;29;20308;-53
2023/10/11 12:53:11;;;;;;;;;;;21.40;1.00;;;;;;4935258;29;20030;-50
2023/10/11 12:55:42;;;;;;;;;;;21.40;1.00;;;;;;4935578;29;19934;-49
2023/10/11 12:58:12;;;;;;;;;;;21.40;1.00;;;;;;4935375;29;19927;-53
2023/10/11 13:00:47;;;;;;;;;;;21.40;1.00;;;;;;4935129;29;19926;-49
2023/10/11 13:03:18;;;;;;;;;;;21.50;1.00;;;;;;4935351;29;19927;-53
2023/10/11 13:05:45;;;;;;;;;;;21.50;1.00;;;;;;4935557;29;19939;-52
2023/10/11 13:08:15;;;;;;;;;;;21.50;1.00;;;;;;4935334;29;19926;-50
2023/10/11 13:10:43;;;;;;;;;;;21.50;1.00;;;;;;4934973;29;19927;-49
2023/10/11 13:13:10;;;;;;;;;;;21.50;1.00;;;;;;4934967;29;20017;-51
2023/10/11 13:15:39;;;;;;;;;;;21.50;1.00;;;;;;4935209;29;19959;-51
2023/10/11 13:18:09;;;;;;;;;;;21.50;1.00;;;;;;4935060;29;19926;-51
2023/10/11 13:20:37;;;;;;;;;;;21.50;1.00;;;;;;4934759;29;19961;-51
2023/10/11 13:23:06;;;;;;;;;;;21.50;1.00;;;;;;4934936;29;19998;-51
2023/10/11 13:25:33;;;;;;;;;;;21.50;1.00;;;;;;4935098;29;20099;-49
2023/10/11 13:28:03;;;;;;;;;;;21.50;1.00;;;;;;4935274;29;19937;-50
2023/10/11 13:30:39;;;;;;;;;;;21.50;1.00;;;;;;4934953;29;19943;-52
2023/10/11 13:33:09;;;;;;;;;;;21.50;1.00;;;;;;4935074;29;19938;-49
2023/10/11 13:35:36;;;;;;;;;;;21.50;1.00;;;;;;4935353;29;19973;-53
2023/10/11 13:38:11;;;;;;;;;;;21.50;1.00;;;;;;4935208;29;20446;-53
2023/10/11 13:40:39;;;;;;;;;;;21.60;1.00;;;;;;4934872;29;20330;-53
2023/10/11 13:43:05;;;;;;;;;;;21.50;1.00;;;;;;4935047;29;20370;-54
2023/10/11 13:45:32;;;;;;;;;;;21.60;1.00;;;;;;4935063;29;19927;-53
2023/10/11 13:48:04;;;;;;;;;;;21.60;1.00;;;;;;4935048;29;19926;-54
2023/10/11 13:50:37;;;;;;;;;;;21.60;1.00;;;;;;4915750;29;19927;-54
2023/10/11 13:53:04;;;;;;;;;;;21.60;1.00;;;;;;4915928;29;20345;-54
2023/10/11 13:55:39;;;;;;;;;;;21.60;1.00;;;;;;4922368;29;19927;-54
2023/10/11 13:58:07;;;;;;;;;;;21.60;1.00;;;;;;4931922;29;19937;-48
2023/10/11 14:05:44;;;;;;;;;;;21.60;1.00;;;;;;4934638;29;20025;-53
2023/10/11 14:08:24;;;;;;;;;;;21.60;1.00;;;;;;4934009;29;20010;-52
2023/10/11 14:10:51;;;;;;;;;;;21.60;1.00;;;;;;4927963;29;19986;-52
2023/10/11 14:13:24;;;;;;;;;;;21.60;1.00;;;;;;4930832;29;19927;-54
2023/10/11 14:15:51;;;;;;;;;;;21.60;1.00;;;;;;4934888;29;19930;-53
2023/10/11 14:18:19;;;;;;;;;;;21.60;1.00;;;;;;4934880;29;19949;-53
2023/10/11 14:20:55;;;;;;;;;;;21.60;1.00;;;;;;4934539;29;19930;-52
2023/10/11 14:23:27;;;;;;;;;;;21.70;1.00;;;;;;4931064;29;20400;-52
2023/10/11 14:25:55;;;;;;;;;;;21.60;1.00;;;;;;4927893;29;20026;-54
2023/10/11 14:28:23;;;;;;;;;;;21.60;1.00;;;;;;4923470;29;19937;-52
2023/10/11 14:30:50;;;;;;;;;;;21.60;1.00;;;;;;4926467;29;19927;-52
2023/10/11 14:33:18;;;;;;;;;;;21.60;1.00;;;;;;4930279;29;19934;-50
2023/10/11 14:35:46;;;;;;;;;;;21.60;1.00;;;;;;4938471;29;19926;-51
2023/10/11 14:38:14;;;;;;;;;;;21.60;1.00;;;;;;4938089;29;19937;-52
2023/10/11 14:40:44;;;;;;;;;;;21.60;1.00;;;;;;4931610;29;19926;-51
2023/10/11 14:43:14;;;;;;;;;;;21.60;1.00;;;;;;4922244;29;19967;-52
2023/10/11 14:45:41;;;;;;;;;;;21.70;1.00;;;;;;4919249;29;19927;-53
2023/10/11 14:48:08;;;;;;;;;;;21.60;1.00;;;;;;4919051;29;19991;-53
2023/10/11 14:50:36;;;;;;;;;;;21.70;1.00;;;;;;4918938;29;19927;-54
2023/10/11 14:53:03;;;;;;;;;;;21.70;1.00;;;;;;4918877;29;19927;-50
2023/10/11 14:55:32;;;;;;;;;;;21.70;1.00;;;;;;4919828;29;19931;-53
2023/10/11 14:57:59;;;;;;;;;;;21.70;1.00;;;;;;4929240;29;19927;-54
2023/10/11 15:00:26;;;;;;;;;;;21.70;1.00;;;;;;4937734;29;19930;-50
2023/10/11 15:02:54;;;;;;;;;;;21.70;1.00;;;;;;4937612;29;19950;-51
2023/10/11 15:05:21;;;;;;;;;;;21.70;1.00;;;;;;4937781;29;20296;-52
2023/10/11 15:07:52;;;;;;;;;;;21.70;1.00;;;;;;4924923;29;19927;-52
2023/10/11 15:10:23;;;;;;;;;;;21.70;1.00;;;;;;4918455;29;20408;-52
2023/10/11 15:12:52;;;;;;;;;;;21.70;1.00;;;;;;4918550;29;19927;-53
2023/10/11 15:15:26;;;;;;;;;;;21.70;1.00;;;;;;4918750;29;20288;-51
2023/10/11 15:17:53;;;;;;;;;;;21.70;1.00;;;;;;4918718;29;19927;-50
2023/10/11 15:20:20;;;;;;;;;;;21.70;1.00;;;;;;4918270;29;19927;-52
2023/10/11 15:22:51;;;;;;;;;;;21.70;1.00;;;;;;4918344;29;19959;-52
2023/10/11 15:25:18;;;;;;;;;;;21.70;1.00;;;;;;4923475;29;20017;-53
2023/10/11 15:27:45;;;;;;;;;;;21.70;1.00;;;;;;4918634;29;20282;-52
2023/10/11 15:30:13;;;;;;;;;;;21.70;1.00;;;;;;4923344;29;19926;-53
2023/10/11 15:32:40;;;;;;;;;;;21.70;1.00;;;;;;4927085;29;20325;-48
2023/10/11 15:35:07;;;;;;;;;;;21.70;1.00;;;;;;4918342;29;19964;-49
2023/10/11 15:37:34;;;;;;;;;;;21.70;1.00;;;;;;4930982;29;19930;-48
2023/10/11 15:40:01;;;;;;;;;;;21.70;1.00;;;;;;4932399;29;20278;-50
2023/10/11 15:42:28;;;;;;;;;;;21.70;1.00;;;;;;4932155;29;19927;-50